createdAt,value
2018-10-18T00:00:46.739Z,15.43
2018-10-18T00:03:17.795Z,15.07
2018-10-18T00:05:48.696Z,15.17
2018-10-18T00:08:19.688Z,14.87
2018-10-18T00:10:51.440Z,16.20
2018-10-18T00:13:22.520Z,15.30
2018-10-18T00:15:53.411Z,16.23
2018-10-18T00:18:24.536Z,16.50
2018-10-18T00:20:55.458Z,14.67
2018-10-18T00:23:26.470Z,15.80
2018-10-18T00:25:57.424Z,15.70
2018-10-18T00:28:28.413Z,16.57
2018-10-18T00:30:59.332Z,16.00
2018-10-18T00:33:30.330Z,14.63
2018-10-18T00:36:01.385Z,15.40
2018-10-18T00:38:32.328Z,15.33
2018-10-18T00:41:03.227Z,15.27
2018-10-18T00:43:34.315Z,14.97
2018-10-18T00:46:05.619Z,14.83
2018-10-18T00:48:36.655Z,13.97
2018-10-18T00:51:07.750Z,13.80
2018-10-18T00:53:38.763Z,13.80
2018-10-18T00:56:09.758Z,13.63
2018-10-18T00:58:40.644Z,14.70
2018-10-18T01:01:11.566Z,15.00
2018-10-18T01:03:42.647Z,15.50
2018-10-18T01:06:13.615Z,15.70
2018-10-18T01:08:44.547Z,14.13
2018-10-18T01:11:15.427Z,16.60
2018-10-18T01:13:46.444Z,15.87
2018-10-18T01:16:17.334Z,16.17
2018-10-18T01:18:48.271Z,15.10
2018-10-18T01:21:19.251Z,14.93
2018-10-18T01:23:50.192Z,14.80
2018-10-18T01:26:21.090Z,13.87
2018-10-18T01:28:52.077Z,13.07
2018-10-18T01:31:23.039Z,13.37
2018-10-18T01:33:53.960Z,13.70
2018-10-18T01:36:25.168Z,16.10
2018-10-18T01:38:56.035Z,15.40
2018-10-18T01:41:26.927Z,16.57
2018-10-18T01:43:58.020Z,16.83
2018-10-18T01:46:28.856Z,15.17
2018-10-18T01:48:59.801Z,15.70
2018-10-18T01:51:30.676Z,15.20
2018-10-18T01:54:01.669Z,15.43
2018-10-18T01:56:32.516Z,16.03
2018-10-18T01:59:03.455Z,16.73
2018-10-18T02:01:34.331Z,16.10
2018-10-18T02:04:05.540Z,17.30
2018-10-18T02:06:36.436Z,16.60
2018-10-18T02:09:11.412Z,16.77
2018-10-18T02:11:43.042Z,16.57
2018-10-18T02:14:13.934Z,15.67
2018-10-18T02:16:44.753Z,14.30
2018-10-18T02:19:15.699Z,15.13
2018-10-18T02:21:46.552Z,15.40
2018-10-18T02:24:17.490Z,14.93
2018-10-18T02:26:48.291Z,16.20
2018-10-18T02:29:19.249Z,14.97
2018-10-18T02:31:50.076Z,15.13
2018-10-18T02:34:20.995Z,14.87
2018-10-18T02:36:51.937Z,15.57
2018-10-18T02:39:22.876Z,16.03
2018-10-18T02:41:54.131Z,15.70
2018-10-18T02:44:25.115Z,15.13
2018-10-18T02:46:56.058Z,15.80
2018-10-18T02:49:27.663Z,15.80
2018-10-18T02:51:58.595Z,15.63
2018-10-18T02:54:29.501Z,15.83
2018-10-18T02:57:00.456Z,15.10
2018-10-18T02:59:31.400Z,15.10
2018-10-18T03:02:02.301Z,14.87
2018-10-18T03:04:33.316Z,15.47
2018-10-18T03:07:04.328Z,13.93
2018-10-18T03:09:35.290Z,14.60
2018-10-18T03:12:06.802Z,13.93
2018-10-18T03:14:37.779Z,14.07
2018-10-18T03:17:08.693Z,14.40
2018-10-18T03:19:39.660Z,15.43
2018-10-18T03:22:10.564Z,15.60
2018-10-18T03:24:41.527Z,16.07
2018-10-18T03:27:12.458Z,15.97
2018-10-18T03:29:43.476Z,16.97
2018-10-18T03:32:14.398Z,17.40
2018-10-18T03:34:45.807Z,17.93
2018-10-18T03:37:16.788Z,17.27
2018-10-18T03:39:47.777Z,16.47
2018-10-18T03:42:18.789Z,17.10
2018-10-18T03:44:49.691Z,18.37
2018-10-18T03:47:20.571Z,17.80
2018-10-18T03:49:51.558Z,16.33
2018-10-18T03:52:22.523Z,17.67
2018-10-18T03:54:53.470Z,16.80
2018-10-18T03:57:24.372Z,15.47
2018-10-18T03:59:55.366Z,15.80
2018-10-18T04:02:26.271Z,15.73
2018-10-18T04:04:57.194Z,16.03
2018-10-18T04:07:28.089Z,14.57
2018-10-18T04:09:59.050Z,13.90
2018-10-18T04:12:29.974Z,15.30
2018-10-18T04:15:01.140Z,15.97
2018-10-18T04:17:32.286Z,15.47
2018-10-18T04:20:03.230Z,14.60
2018-10-18T04:22:34.262Z,16.07
2018-10-18T04:25:05.768Z,16.53
2018-10-18T04:27:36.771Z,15.57
2018-10-18T04:30:08.651Z,15.20
2018-10-18T04:32:39.622Z,16.40
2018-10-18T04:35:10.640Z,15.10
2018-10-18T04:37:41.603Z,16.00
2018-10-18T04:40:12.535Z,15.63
2018-10-18T04:42:43.543Z,14.80
2018-10-18T04:45:14.618Z,15.20
2018-10-18T04:47:45.847Z,15.47
2018-10-18T04:50:16.801Z,16.60
2018-10-18T04:52:47.729Z,16.33
2018-10-18T04:55:18.699Z,15.97
2018-10-18T04:57:49.540Z,14.50
2018-10-18T05:00:20.537Z,15.50
2018-10-18T05:02:51.656Z,14.20
2018-10-18T05:05:39.792Z,14.53
2018-10-18T05:08:10.723Z,16.30
2018-10-18T05:10:41.660Z,16.57
2018-10-18T05:13:12.581Z,16.17
2018-10-18T05:15:43.634Z,14.63
2018-10-18T05:18:14.542Z,15.10
2018-10-18T05:20:45.519Z,15.43
2018-10-18T05:23:16.423Z,15.30
2018-10-18T05:25:48.187Z,15.90
2018-10-18T05:28:19.098Z,14.63
2018-10-18T05:30:50.859Z,15.43
2018-10-18T05:33:21.736Z,15.57
2018-10-18T05:35:52.762Z,14.67
2018-10-18T05:38:23.865Z,15.70
2018-10-18T05:40:54.858Z,15.97
2018-10-18T05:43:26.114Z,20.37
2018-10-18T05:45:57.296Z,17.50
2018-10-18T05:48:28.507Z,15.80
2018-10-18T05:50:59.414Z,15.33
2018-10-18T05:53:30.395Z,15.77
2018-10-18T05:56:01.489Z,15.60
2018-10-18T05:58:32.332Z,14.53
2018-10-18T06:01:03.393Z,15.87
2018-10-18T06:03:34.342Z,15.67
2018-10-18T06:06:05.428Z,15.00
2018-10-18T06:08:36.407Z,14.70
2018-10-18T06:11:22.724Z,14.77
2018-10-18T06:13:54.104Z,15.03
2018-10-18T06:16:25.947Z,16.10
2018-10-18T06:18:56.880Z,17.27
2018-10-18T06:21:27.779Z,16.33
2018-10-18T06:23:58.869Z,17.63
2018-10-18T06:26:29.804Z,16.43
2018-10-18T06:29:00.989Z,17.17
2018-10-18T06:31:31.957Z,18.00
2018-10-18T06:34:03.000Z,16.13
2018-10-18T06:36:33.983Z,15.87
2018-10-18T06:39:06.564Z,14.80
2018-10-18T06:41:38.312Z,14.67
2018-10-18T06:44:09.498Z,14.97
2018-10-18T06:46:40.552Z,16.93
2018-10-18T06:49:11.612Z,15.93
2018-10-18T06:51:42.456Z,17.43
2018-10-18T06:54:13.582Z,17.37
2018-10-18T06:56:44.472Z,17.57
2018-10-18T06:59:15.554Z,17.20
2018-10-18T07:01:46.484Z,18.50
2018-10-18T07:04:17.424Z,17.07
2018-10-18T07:06:48.336Z,18.67
2018-10-18T07:09:19.372Z,18.97
2018-10-18T07:11:51.587Z,19.60
2018-10-18T07:14:22.532Z,18.70
2018-10-18T07:16:54.101Z,18.67
2018-10-18T07:19:25.136Z,20.23
2018-10-18T07:21:56.135Z,19.30
2018-10-18T07:24:27.110Z,19.90
2018-10-18T07:26:58.151Z,19.70
2018-10-18T07:29:29.180Z,19.87
2018-10-18T07:32:00.200Z,18.10
2018-10-18T07:34:31.255Z,18.13
2018-10-18T07:37:02.241Z,17.83
2018-10-18T07:39:33.163Z,18.50
2018-10-18T07:42:04.155Z,17.80
2018-10-18T07:44:35.245Z,18.27
2018-10-18T07:47:07.154Z,18.80
2018-10-18T07:49:38.292Z,19.13
2018-10-18T07:52:09.524Z,18.47
2018-10-18T07:54:40.554Z,18.70
2018-10-18T07:57:11.535Z,18.97
2018-10-18T07:59:42.559Z,18.47
2018-10-18T08:02:13.643Z,17.57
2018-10-18T08:04:44.744Z,17.90
2018-10-18T08:07:15.724Z,18.40
2018-10-18T08:09:46.707Z,16.90
2018-10-18T08:12:17.594Z,16.67
2018-10-18T08:14:48.509Z,17.87
2018-10-18T08:17:20.154Z,17.87
2018-10-18T08:19:51.088Z,18.00
2018-10-18T08:22:22.095Z,17.90
2018-10-18T08:24:53.093Z,16.73
2018-10-18T08:27:24.076Z,17.73
2018-10-18T08:29:55.179Z,17.00
2018-10-18T08:32:26.192Z,16.37
2018-10-18T08:34:57.216Z,17.43
2018-10-18T08:37:28.240Z,18.10
2018-10-18T08:39:59.272Z,32.93
2018-10-18T08:42:30.316Z,16.07
2018-10-18T08:45:01.311Z,16.00
2018-10-18T08:47:32.301Z,15.80
2018-10-18T08:50:03.615Z,15.67
2018-10-18T08:52:35.539Z,16.93
2018-10-18T08:55:08.125Z,14.57
2018-10-18T08:57:39.107Z,15.03
2018-10-18T09:00:11.754Z,15.10
2018-10-18T09:02:45.120Z,16.17
2018-10-18T09:05:16.707Z,15.20
2018-10-18T09:07:48.090Z,15.60
2018-10-18T09:10:19.095Z,14.70
2018-10-18T09:12:50.262Z,14.80
2018-10-18T09:15:21.317Z,14.57
2018-10-18T09:17:52.463Z,13.40
2018-10-18T09:20:23.679Z,14.17
2018-10-18T09:22:54.635Z,13.53
2018-10-18T09:25:25.742Z,13.93
2018-10-18T09:27:56.816Z,13.57
2018-10-18T09:30:27.908Z,13.43
2018-10-18T09:32:58.913Z,12.47
2018-10-18T09:35:30.251Z,13.60
2018-10-18T09:38:01.459Z,13.07
2018-10-18T09:40:32.660Z,12.10
2018-10-18T09:43:03.846Z,12.77
2018-10-18T09:45:34.998Z,12.97
2018-10-18T09:48:05.982Z,12.63
2018-10-18T09:50:37.011Z,12.43
2018-10-18T09:53:08.391Z,11.30
2018-10-18T09:55:39.689Z,11.43
2018-10-18T09:58:10.614Z,12.40
2018-10-18T10:00:46.832Z,11.77
2018-10-18T10:03:18.867Z,10.50
2018-10-18T10:05:49.884Z,11.67
2018-10-18T10:08:20.838Z,10.77
2018-10-18T10:10:52.060Z,10.57
2018-10-18T10:13:23.532Z,9.77
2018-10-18T10:15:54.554Z,10.73
2018-10-18T10:18:25.548Z,10.63
2018-10-18T10:20:56.591Z,9.07
2018-10-18T10:23:27.631Z,10.10
2018-10-18T10:25:58.659Z,10.20
2018-10-18T10:28:29.663Z,9.53
2018-10-18T10:31:00.721Z,9.13
2018-10-18T10:33:31.983Z,9.13
2018-10-18T10:36:03.013Z,9.43
2018-10-18T10:38:34.304Z,9.37
2018-10-18T10:41:05.654Z,9.13
2018-10-18T10:43:36.593Z,8.33
2018-10-18T10:46:07.878Z,8.37
2018-10-18T10:48:39.034Z,9.13
2018-10-18T10:51:10.279Z,8.33
2018-10-18T10:53:41.458Z,8.70
2018-10-18T10:56:12.705Z,7.67
2018-10-18T10:58:43.705Z,8.47
2018-10-18T11:01:21.712Z,8.47
2018-10-18T11:03:54.107Z,8.97
2018-10-18T11:06:25.485Z,8.47
2018-10-18T11:08:56.507Z,8.00
2018-10-18T11:11:27.767Z,9.13
2018-10-18T11:13:58.725Z,9.13
2018-10-18T11:16:29.918Z,9.63
2018-10-18T11:19:01.036Z,8.37
2018-10-18T11:21:32.204Z,8.60
2018-10-18T11:24:03.290Z,10.67
2018-10-18T11:26:34.471Z,9.07
2018-10-18T11:29:05.892Z,9.13
2018-10-18T11:31:36.980Z,9.97
2018-10-18T11:34:08.348Z,8.80
2018-10-18T11:36:39.414Z,9.47
2018-10-18T11:39:11.115Z,9.53
2018-10-18T11:41:42.198Z,9.17
2018-10-18T11:44:13.280Z,9.40
2018-10-18T11:46:44.334Z,9.03
2018-10-18T11:49:15.395Z,8.73
2018-10-18T11:51:46.743Z,7.57
2018-10-18T11:54:17.932Z,8.13
2018-10-18T11:56:49.319Z,8.27
2018-10-18T11:59:20.590Z,8.33
2018-10-18T12:01:51.768Z,8.70
2018-10-18T12:04:22.712Z,8.53
2018-10-18T12:06:53.772Z,8.40
2018-10-18T12:09:25.513Z,7.70
2018-10-18T12:11:56.520Z,8.30
2018-10-18T12:14:28.867Z,7.90
2018-10-18T12:17:01.576Z,7.90
2018-10-18T12:19:32.692Z,7.83
2018-10-18T12:22:06.431Z,7.87
2018-10-18T12:24:37.408Z,7.57
2018-10-18T12:27:08.683Z,7.93
2018-10-18T12:29:39.669Z,8.50
2018-10-18T12:32:13.476Z,8.90
2018-10-18T12:34:44.592Z,8.80
2018-10-18T12:37:15.631Z,9.40
2018-10-18T12:39:46.868Z,9.53
2018-10-18T12:42:17.934Z,9.10
2018-10-18T12:44:48.877Z,9.00
2018-10-18T12:47:20.074Z,9.47
2018-10-18T12:49:51.112Z,9.30
2018-10-18T12:52:22.174Z,8.87
2018-10-18T12:54:53.091Z,9.97
2018-10-18T12:57:24.174Z,9.23
2018-10-18T12:59:55.123Z,10.20
2018-10-18T13:02:26.545Z,10.67
2018-10-18T13:04:57.491Z,10.70
2018-10-18T13:07:28.703Z,10.57
2018-10-18T13:10:00.094Z,10.70
2018-10-18T13:12:31.527Z,9.73
2018-10-18T13:15:03.306Z,11.10
2018-10-18T13:17:34.524Z,11.43
2018-10-18T13:20:07.773Z,11.43
2018-10-18T13:22:39.730Z,10.10
2018-10-18T13:25:12.044Z,11.37
2018-10-18T13:27:43.952Z,10.53
2018-10-18T13:30:15.021Z,10.53
2018-10-18T13:32:45.960Z,10.30
2018-10-18T13:35:17.119Z,10.07
2018-10-18T13:37:48.180Z,10.47
2018-10-18T13:40:19.314Z,11.23
2018-10-18T13:42:50.292Z,11.40
2018-10-18T13:45:21.545Z,11.90
2018-10-18T13:47:52.824Z,12.00
2018-10-18T13:50:24.270Z,11.63
2018-10-18T13:52:55.339Z,12.87
2018-10-18T13:55:26.941Z,12.20
2018-10-18T13:57:58.004Z,11.00
2018-10-18T14:00:32.336Z,12.77
2018-10-18T14:03:03.394Z,13.03
2018-10-18T14:05:34.511Z,13.30
2018-10-18T14:08:05.921Z,13.00
2018-10-18T14:10:36.979Z,14.00
2018-10-18T14:13:07.980Z,14.47
2018-10-18T14:15:39.372Z,13.20
2018-10-18T14:18:10.460Z,13.57
2018-10-18T14:20:41.634Z,14.10
2018-10-18T14:23:12.687Z,13.63
2018-10-18T14:25:43.750Z,13.43
2018-10-18T14:28:15.617Z,12.97
2018-10-18T14:30:46.762Z,14.50
2018-10-18T14:33:17.794Z,13.90
2018-10-18T14:35:48.851Z,14.23
2018-10-18T14:38:19.940Z,13.37
2018-10-18T14:40:51.289Z,14.07
2018-10-18T14:43:22.515Z,14.63
2018-10-18T14:45:53.522Z,15.27
2018-10-18T14:48:24.663Z,16.13
2018-10-18T14:50:55.863Z,15.40
2018-10-18T14:53:27.313Z,16.40
2018-10-18T14:55:59.172Z,18.27
2018-10-18T14:58:30.496Z,17.73
2018-10-18T15:01:01.612Z,17.07
2018-10-18T15:03:32.660Z,18.07
2018-10-18T15:06:03.798Z,17.93
2018-10-18T15:08:34.857Z,18.80
2018-10-18T15:11:06.529Z,18.17
2018-10-18T15:13:37.767Z,19.07
2018-10-18T15:16:08.817Z,19.17
2018-10-18T15:18:40.048Z,18.27
2018-10-18T15:21:11.284Z,18.53
2018-10-18T15:23:42.420Z,18.57
2018-10-18T15:26:13.548Z,20.03
2018-10-18T15:28:46.097Z,19.20
2018-10-18T15:31:17.907Z,18.13
2018-10-18T15:33:48.991Z,19.60
2018-10-18T15:36:20.750Z,17.87
2018-10-18T15:38:52.559Z,18.73
2018-10-18T15:41:23.355Z,19.13
2018-10-18T15:43:54.854Z,18.47
2018-10-18T15:46:25.909Z,18.10
2018-10-18T15:48:57.139Z,18.67
2018-10-18T15:51:28.348Z,19.17
2018-10-18T15:53:59.418Z,18.93
2018-10-18T15:56:30.565Z,18.43
2018-10-18T15:59:01.533Z,18.37
2018-10-18T16:01:32.450Z,19.80
2018-10-18T16:04:03.567Z,17.77
2018-10-18T16:06:34.560Z,19.40
2018-10-18T16:09:08.700Z,17.17
2018-10-18T16:11:39.705Z,16.37
2018-10-18T16:14:11.089Z,16.63
2018-10-18T16:16:42.136Z,17.60
2018-10-18T16:19:13.125Z,17.40
2018-10-18T16:21:44.043Z,16.33
2018-10-18T16:24:15.141Z,17.33
2018-10-18T16:26:46.130Z,17.60
2018-10-18T16:29:18.370Z,16.43
2018-10-18T16:31:49.443Z,14.10
2018-10-18T16:34:20.707Z,14.33
2018-10-18T16:36:51.872Z,12.23
2018-10-18T16:39:24.270Z,13.30
2018-10-18T16:41:56.025Z,12.50
2018-10-18T16:44:27.144Z,12.60
2018-10-18T16:46:58.119Z,12.70
2018-10-18T16:49:29.297Z,12.77
2018-10-18T16:52:00.445Z,13.83
2018-10-18T16:54:32.301Z,13.40
2018-10-18T16:57:03.831Z,11.70
2018-10-18T16:59:35.377Z,12.17
2018-10-18T17:02:07.356Z,11.73
2018-10-18T17:04:38.482Z,13.80
2018-10-18T17:07:09.775Z,13.97
2018-10-18T17:09:40.800Z,12.20
2018-10-18T17:12:11.870Z,13.60
2018-10-18T17:14:42.943Z,13.73
2018-10-18T17:17:13.939Z,13.00
2018-10-18T17:19:45.371Z,14.23
2018-10-18T17:22:17.114Z,13.43
2018-10-18T17:24:48.928Z,13.23
2018-10-18T17:27:23.225Z,12.67
2018-10-18T17:29:54.220Z,12.00
2018-10-18T17:32:25.282Z,12.23
2018-10-18T17:34:57.474Z,12.30
2018-10-18T17:37:28.477Z,11.63
2018-10-18T17:40:00.428Z,13.03
2018-10-18T17:42:31.521Z,12.63
2018-10-18T17:45:02.574Z,11.73
2018-10-18T17:47:34.174Z,14.17
2018-10-18T17:50:05.466Z,11.30
2018-10-18T17:52:36.934Z,12.63
2018-10-18T17:55:09.232Z,14.73
2018-10-18T17:57:40.727Z,14.03
2018-10-18T18:00:13.685Z,16.07
2018-10-18T18:02:44.714Z,16.93
2018-10-18T18:05:16.802Z,16.53
2018-10-18T18:07:48.883Z,14.83
2018-10-18T18:10:21.225Z,15.23
2018-10-18T18:12:53.123Z,15.50
2018-10-18T18:15:24.278Z,18.23
2018-10-18T18:17:55.871Z,15.90
2018-10-18T18:20:27.113Z,15.80
2018-10-18T18:22:58.896Z,17.97
2018-10-18T18:25:30.058Z,19.27
2018-10-18T18:28:01.301Z,19.47
2018-10-18T18:30:32.532Z,18.63
2018-10-18T18:33:03.822Z,18.73
2018-10-18T18:35:35.274Z,20.17
2018-10-18T18:38:06.805Z,19.97
2018-10-18T18:40:39.312Z,20.40
2018-10-18T18:43:10.548Z,20.03
2018-10-18T18:45:48.505Z,19.93
2018-10-18T18:48:19.789Z,20.83
2018-10-18T18:50:51.214Z,19.33
2018-10-18T18:53:22.491Z,20.60
2018-10-18T18:55:55.072Z,19.77
2018-10-18T18:58:26.272Z,20.57
2018-10-18T19:00:58.124Z,20.50
2018-10-18T19:03:29.549Z,21.60
2018-10-18T19:06:03.094Z,20.70
2018-10-18T19:08:35.112Z,20.53
2018-10-18T19:11:06.631Z,21.43
2018-10-18T19:13:38.382Z,20.40
2018-10-18T19:16:09.879Z,21.97
2018-10-18T19:18:41.374Z,20.90
2018-10-18T19:21:12.636Z,20.97
2018-10-18T19:23:43.856Z,21.10
2018-10-18T19:26:15.319Z,22.67
2018-10-18T19:28:46.946Z,22.63
2018-10-18T19:31:18.386Z,21.37
2018-10-18T19:33:49.854Z,23.67
2018-10-18T19:36:21.133Z,22.30
2018-10-18T19:38:53.203Z,23.47
2018-10-18T19:41:24.712Z,23.00
2018-10-18T19:43:56.190Z,23.40
2018-10-18T19:46:27.961Z,22.47
2018-10-18T19:48:59.392Z,23.93
2018-10-18T19:51:30.968Z,23.43
2018-10-18T19:54:02.723Z,22.37
2018-10-18T19:56:33.927Z,22.67
2018-10-18T19:59:05.212Z,22.97
2018-10-18T20:01:38.132Z,22.93
2018-10-18T20:04:09.241Z,21.43
2018-10-18T20:06:40.728Z,22.23
2018-10-18T20:09:14.102Z,23.03
2018-10-18T20:11:45.386Z,21.57
2018-10-18T20:14:16.400Z,21.40
2018-10-18T20:16:47.404Z,21.23
2018-10-18T20:19:18.464Z,20.97
2018-10-18T20:21:49.562Z,22.13
2018-10-18T20:24:20.628Z,21.97
2018-10-18T20:26:51.851Z,22.13
2018-10-18T20:29:22.876Z,22.07
2018-10-18T20:31:54.868Z,22.80
2018-10-18T20:34:26.463Z,21.93
2018-10-18T20:36:57.834Z,23.07
2018-10-18T20:39:28.921Z,21.90
2018-10-18T20:42:00.086Z,21.60
2018-10-18T20:44:31.204Z,21.63
2018-10-18T20:47:02.813Z,22.10
2018-10-18T20:49:33.852Z,22.97
2018-10-18T20:52:05.322Z,22.73
2018-10-18T20:54:36.323Z,22.07
2018-10-18T20:57:07.652Z,22.30
2018-10-18T20:59:38.749Z,21.73
2018-10-18T21:02:10.744Z,22.60
2018-10-18T21:04:41.752Z,22.07
2018-10-18T21:07:13.113Z,21.30
2018-10-18T21:09:44.252Z,21.27
2018-10-18T21:12:15.334Z,22.17
2018-10-18T21:14:46.412Z,22.63
2018-10-18T21:17:17.476Z,22.03
2018-10-18T21:19:48.492Z,21.80
2018-10-18T21:22:19.902Z,20.13
2018-10-18T21:24:51.035Z,20.67
2018-10-18T21:27:22.162Z,20.40
2018-10-18T21:29:53.160Z,19.53
2018-10-18T21:32:24.398Z,18.67
2018-10-18T21:34:55.886Z,20.30
2018-10-18T21:37:27.039Z,20.40
2018-10-18T21:39:58.064Z,18.80
2018-10-18T21:42:29.135Z,19.43
2018-10-18T21:45:01.550Z,20.33
2018-10-18T21:47:32.974Z,20.07
2018-10-18T21:50:04.217Z,20.40
2018-10-18T21:52:35.496Z,20.80
2018-10-18T21:55:07.277Z,19.53
2018-10-18T21:57:38.449Z,21.10
2018-10-18T22:00:14.173Z,20.87
2018-10-18T22:02:46.147Z,20.33
2018-10-18T22:05:17.323Z,19.50
2018-10-18T22:07:48.375Z,19.03
2018-10-18T22:10:19.435Z,20.23
2018-10-18T22:12:53.420Z,21.13
2018-10-18T22:15:24.471Z,19.20
2018-10-18T22:17:55.532Z,19.57
2018-10-18T22:20:26.532Z,19.80
2018-10-18T22:22:57.729Z,20.53
2018-10-18T22:25:28.764Z,19.07
2018-10-18T22:27:59.865Z,18.43
2018-10-18T22:30:30.956Z,18.67
2018-10-18T22:33:02.003Z,18.93
2018-10-18T22:35:33.092Z,18.33
2018-10-18T22:38:04.391Z,18.83
2018-10-18T22:40:35.439Z,17.13
2018-10-18T22:43:07.039Z,18.80
2018-10-18T22:45:38.071Z,17.70
2018-10-18T22:48:09.151Z,18.67
2018-10-18T22:50:40.131Z,18.23
2018-10-18T22:53:11.245Z,19.10
2018-10-18T22:55:42.187Z,16.77
2018-10-18T22:58:13.436Z,17.63
2018-10-18T23:00:49.064Z,17.33
2018-10-18T23:03:21.737Z,18.87
2018-10-18T23:05:52.719Z,17.90
2018-10-18T23:08:23.791Z,17.07
2018-10-18T23:10:54.831Z,17.90
2018-10-18T23:13:25.872Z,16.60
2018-10-18T23:15:56.919Z,17.13
2018-10-18T23:18:27.888Z,18.73
2018-10-18T23:20:58.930Z,17.60
2018-10-18T23:23:29.971Z,18.17
2018-10-18T23:26:00.967Z,19.17
2018-10-18T23:28:31.931Z,19.97
2018-10-18T23:31:02.954Z,18.97
2018-10-18T23:33:34.054Z,19.67
2018-10-18T23:36:05.072Z,18.50
2018-10-18T23:38:36.195Z,18.93
2018-10-18T23:41:07.904Z,19.33
2018-10-18T23:43:38.853Z,18.90
2018-10-18T23:46:09.851Z,20.13
2018-10-18T23:48:40.871Z,19.47
2018-10-18T23:51:11.939Z,20.37
2018-10-18T23:53:42.911Z,20.77
2018-10-18T23:56:13.964Z,20.33
2018-10-18T23:58:44.954Z,22.30
